Time;durP1;ratioP1;P1;durP2;ratioP2;P2;SDS_P1;SDS_P2;PMS_P1;PMS_P2;Temp;Humidity;BMP_temperature;BMP_pressure;BME280_temperature;BME280_humidity;BME280_pressure;Samples;Min_cycle;Max_cycle;Signal;HPM_P1;HPM_P2
2023/04/05 00:00:53;;;;;;;9.27;6.03;;;;;;;;;;5002932;28;89876;-61
2023/04/05 00:03:19;;;;;;;11.23;6.03;;;;;;;;;;5013400;28;87582;-61
2023/04/05 00:05:48;;;;;;;10.05;6.45;;;;;;;;;;5002474;28;88256;-64
2023/04/05 00:08:22;;;;;;;9.57;5.15;;;;;;;;;;4998331;28;90040;-61
2023/04/05 00:10:49;;;;;;;9.48;5.75;;;;;;;;;;4997133;28;89888;-61
2023/04/05 00:13:15;;;;;;;6.72;5.40;;;;;;;;;;5006055;28;89517;-63
2023/04/05 00:15:42;;;;;;;12.23;6.20;;;;;;;;;;5001834;28;90093;-61
2023/04/05 00:18:20;;;;;;;10.20;5.80;;;;;;;;;;5010405;28;88259;-62
2023/04/05 00:20:47;;;;;;;11.93;5.35;;;;;;;;;;5012312;28;91965;-61
2023/04/05 00:23:15;;;;;;;15.35;5.88;;;;;;;;;;5013773;28;88040;-61
2023/04/05 00:25:42;;;;;;;14.85;5.95;;;;;;;;;;5014707;28;90086;-61
2023/04/05 00:28:08;;;;;;;8.98;5.10;;;;;;;;;;4999665;28;87967;-61
2023/04/05 00:30:35;;;;;;;15.05;6.10;;;;;;;;;;4998212;28;88019;-61
2023/04/05 00:33:01;;;;;;;10.45;6.07;;;;;;;;;;4998016;28;89658;-62
2023/04/05 00:35:28;;;;;;;12.65;6.43;;;;;;;;;;4997647;28;89963;-62
2023/04/05 00:37:55;;;;;;;12.40;6.32;;;;;;;;;;4998612;28;88956;-62
2023/04/05 00:40:22;;;;;;;10.20;5.13;;;;;;;;;;5001181;28;88814;-61
2023/04/05 00:42:48;;;;;;;7.88;5.45;;;;;;;;;;4998164;28;88319;-61
2023/04/05 00:45:14;;;;;;;10.98;5.70;;;;;;;;;;4997774;28;88753;-61
2023/04/05 00:47:41;;;;;;;9.85;5.75;;;;;;;;;;4998417;28;89188;-62
2023/04/05 00:50:08;;;;;;;12.07;6.22;;;;;;;;;;4998174;28;88458;-61
2023/04/05 00:52:36;;;;;;;13.07;6.32;;;;;;;;;;4997743;28;87461;-61
2023/04/05 00:55:04;;;;;;;10.70;6.03;;;;;;;;;;4998248;28;89985;-61
2023/04/05 00:57:33;;;;;;;11.02;6.18;;;;;;;;;;4997570;28;88067;-61
2023/04/05 01:00:00;;;;;;;14.45;6.80;;;;;;;;;;5004077;28;88762;-61
2023/04/05 01:02:38;;;;;;;11.68;6.80;;;;;;;;;;5006457;28;88564;-61
2023/04/05 01:05:20;;;;;;;10.00;6.53;;;;;;;;;;5011941;28;88820;-61
2023/04/05 01:07:53;;;;;;;8.65;6.30;;;;;;;;;;5008113;28;88364;-61
2023/04/05 01:10:21;;;;;;;12.32;7.20;;;;;;;;;;5006370;28;88997;-61
2023/04/05 01:12:47;;;;;;;14.02;6.90;;;;;;;;;;5016630;28;88585;-62
2023/04/05 01:15:13;;;;;;;11.68;7.40;;;;;;;;;;5016332;28;88873;-61
2023/04/05 01:17:41;;;;;;;12.27;7.30;;;;;;;;;;5004106;28;87918;-61
2023/04/05 01:20:09;;;;;;;10.75;6.50;;;;;;;;;;5014914;28;88336;-62
2023/04/05 01:22:58;;;;;;;10.25;6.68;;;;;;;;;;5012298;28;89308;-61
2023/04/05 01:25:43;;;;;;;20.35;7.50;;;;;;;;;;4998486;28;88928;-64
2023/04/05 01:28:28;;;;;;;14.25;7.07;;;;;;;;;;4990155;28;89051;-61
2023/04/05 01:30:59;;;;;;;17.63;8.40;;;;;;;;;;5002053;28;89009;-61
2023/04/05 01:33:40;;;;;;;10.93;7.85;;;;;;;;;;5004516;28;89929;-61
2023/04/05 01:36:11;;;;;;;14.68;7.70;;;;;;;;;;5010970;28;88992;-62
2023/04/05 01:38:39;;;;;;;16.95;7.05;;;;;;;;;;5003665;28;88620;-61
2023/04/05 01:41:05;;;;;;;14.82;6.80;;;;;;;;;;4996175;28;88718;-60
2023/04/05 01:43:32;;;;;;;12.70;7.60;;;;;;;;;;5014075;28;88288;-60
2023/04/05 01:45:58;;;;;;;16.20;8.07;;;;;;;;;;5018961;28;88168;-61
2023/04/05 01:48:24;;;;;;;11.95;7.45;;;;;;;;;;4993149;28;89035;-61
2023/04/05 01:50:50;;;;;;;10.43;7.10;;;;;;;;;;5002948;28;88819;-60
2023/04/05 01:53:17;;;;;;;13.75;7.93;;;;;;;;;;5003821;28;91023;-61
2023/04/05 01:55:43;;;;;;;15.98;7.65;;;;;;;;;;5000666;28;90167;-60
2023/04/05 01:58:10;;;;;;;13.50;7.95;;;;;;;;;;5002461;28;89824;-61
2023/04/05 02:00:36;;;;;;;11.20;8.13;;;;;;;;;;4995037;28;88174;-61
2023/04/05 02:03:02;;;;;;;13.60;7.38;;;;;;;;;;5011634;28;89775;-60
2023/04/05 02:05:29;;;;;;;12.85;8.13;;;;;;;;;;5011479;28;88149;-60
2023/04/05 02:07:55;;;;;;;16.85;7.53;;;;;;;;;;5007631;28;88898;-60
2023/04/05 02:10:22;;;;;;;15.05;8.23;;;;;;;;;;4995297;28;89867;-61
2023/04/05 02:12:48;;;;;;;9.25;6.93;;;;;;;;;;5012567;28;88952;-60
2023/04/05 02:15:15;;;;;;;10.93;6.78;;;;;;;;;;4997893;28;90816;-61
2023/04/05 02:17:44;;;;;;;10.85;7.57;;;;;;;;;;5002453;28;88065;-60
2023/04/05 02:20:13;;;;;;;14.97;7.67;;;;;;;;;;5013113;28;89088;-61
2023/04/05 02:22:40;;;;;;;12.85;7.25;;;;;;;;;;4997656;28;89481;-62
2023/04/05 02:25:09;;;;;;;11.32;7.00;;;;;;;;;;5011189;28;88040;-60
2023/04/05 02:27:36;;;;;;;21.73;7.93;;;;;;;;;;4999792;28;88742;-60
2023/04/05 02:30:03;;;;;;;17.95;7.60;;;;;;;;;;5010204;28;89091;-61
2023/04/05 02:32:30;;;;;;;11.68;7.22;;;;;;;;;;5010122;28;88803;-61
2023/04/05 02:34:57;;;;;;;11.15;7.03;;;;;;;;;;5012021;28;89218;-60
2023/04/05 02:37:25;;;;;;;10.52;7.25;;;;;;;;;;5013782;28;88159;-61
2023/04/05 02:39:51;;;;;;;10.90;7.40;;;;;;;;;;4994869;28;88925;-60
2023/04/05 02:42:18;;;;;;;11.35;7.47;;;;;;;;;;5015644;28;89597;-60
2023/04/05 02:44:44;;;;;;;11.75;7.28;;;;;;;;;;5013715;28;88040;-60
2023/04/05 02:47:10;;;;;;;14.55;7.65;;;;;;;;;;5003784;28;88659;-61
2023/04/05 02:49:36;;;;;;;11.13;7.80;;;;;;;;;;4994725;28;89220;-61
2023/04/05 02:52:03;;;;;;;13.45;7.63;;;;;;;;;;5014023;28;88582;-60
2023/04/05 02:54:29;;;;;;;12.27;6.97;;;;;;;;;;5007215;28;88950;-61
2023/04/05 02:56:56;;;;;;;13.07;7.43;;;;;;;;;;5012461;28;88873;-61
2023/04/05 02:59:22;;;;;;;13.38;7.03;;;;;;;;;;5008207;28;88246;-60
2023/04/05 03:01:49;;;;;;;16.55;7.38;;;;;;;;;;4999020;28;88923;-60
2023/04/05 03:04:16;;;;;;;12.70;7.95;;;;;;;;;;5006096;28;88834;-63
2023/04/05 03:06:45;;;;;;;12.43;7.07;;;;;;;;;;5013255;28;89676;-61
2023/04/05 03:09:11;;;;;;;15.55;7.65;;;;;;;;;;5014773;28;89113;-61
2023/04/05 03:11:37;;;;;;;11.57;7.70;;;;;;;;;;5016721;28;89067;-62
2023/04/05 03:14:04;;;;;;;14.70;7.68;;;;;;;;;;5013692;28;89662;-62
2023/04/05 03:16:30;;;;;;;14.50;7.85;;;;;;;;;;5005842;28;88151;-63
2023/04/05 03:18:56;;;;;;;12.93;7.90;;;;;;;;;;5012191;28;88813;-63
2023/04/05 03:21:23;;;;;;;12.40;7.60;;;;;;;;;;5007852;28;88120;-62
2023/04/05 03:23:49;;;;;;;11.95;7.45;;;;;;;;;;4995937;28;88120;-63
2023/04/05 03:26:15;;;;;;;12.80;8.07;;;;;;;;;;5003514;28;88171;-62
2023/04/05 03:28:43;;;;;;;14.85;7.20;;;;;;;;;;5007231;28;90870;-61
2023/04/05 03:31:10;;;;;;;17.90;8.27;;;;;;;;;;4999216;28;88159;-61
2023/04/05 03:33:36;;;;;;;13.30;7.38;;;;;;;;;;5002051;28;88933;-62
2023/04/05 03:36:04;;;;;;;13.65;7.75;;;;;;;;;;4999216;28;88056;-61
2023/04/05 03:38:32;;;;;;;12.40;7.18;;;;;;;;;;5003386;28;90295;-61
2023/04/05 03:40:58;;;;;;;12.20;7.28;;;;;;;;;;5012523;28;89055;-62
2023/04/05 03:43:26;;;;;;;15.25;7.75;;;;;;;;;;5018962;28;88116;-61
2023/04/05 03:45:52;;;;;;;12.80;7.50;;;;;;;;;;5019370;28;88840;-62
2023/04/05 03:48:20;;;;;;;17.13;7.35;;;;;;;;;;4999686;28;90126;-63
2023/04/05 03:50:46;;;;;;;16.13;7.28;;;;;;;;;;4998593;28;88088;-62
2023/04/05 03:53:16;;;;;;;15.05;7.97;;;;;;;;;;5007621;28;88808;-61
2023/04/05 03:55:49;;;;;;;10.38;6.82;;;;;;;;;;5020557;28;91243;-61
2023/04/05 03:58:15;;;;;;;13.90;7.05;;;;;;;;;;5008538;28;89799;-61
2023/04/05 04:00:42;;;;;;;14.23;8.05;;;;;;;;;;5006164;28;89069;-62
2023/04/05 04:03:08;;;;;;;11.82;6.93;;;;;;;;;;5007509;28;88000;-61
2023/04/05 04:05:37;;;;;;;13.13;7.40;;;;;;;;;;5012607;28;89050;-62
2023/04/05 04:08:05;;;;;;;13.95;7.88;;;;;;;;;;4997473;28;89511;-61
2023/04/05 04:10:33;;;;;;;14.65;7.93;;;;;;;;;;5010304;28;88218;-61
2023/04/05 04:13:00;;;;;;;12.95;7.45;;;;;;;;;;5018622;28;88204;-61
2023/04/05 04:15:26;;;;;;;14.80;8.18;;;;;;;;;;5003961;28;89052;-61
2023/04/05 04:17:52;;;;;;;13.88;7.72;;;;;;;;;;5006295;28;90797;-62
2023/04/05 04:20:19;;;;;;;11.50;7.57;;;;;;;;;;5006931;28;90006;-60
2023/04/05 04:22:47;;;;;;;15.50;7.53;;;;;;;;;;5000049;28;88063;-62
2023/04/05 04:25:17;;;;;;;11.38;7.45;;;;;;;;;;5004671;28;89291;-61
2023/04/05 04:27:45;;;;;;;16.23;7.88;;;;;;;;;;4998443;28;89335;-61
2023/04/05 04:30:12;;;;;;;16.08;7.55;;;;;;;;;;4999575;28;88329;-61
2023/04/05 04:32:52;;;;;;;15.43;6.68;;;;;;;;;;5002989;28;89939;-61
2023/04/05 04:35:26;;;;;;;11.60;7.00;;;;;;;;;;4999090;28;88173;-61
2023/04/05 04:37:59;;;;;;;19.08;7.57;;;;;;;;;;4978758;28;88050;-61
2023/04/05 04:40:37;;;;;;;16.38;7.55;;;;;;;;;;4989973;28;88073;-61
2023/04/05 04:43:15;;;;;;;21.77;7.15;;;;;;;;;;4997860;28;89229;-60
2023/04/05 04:45:45;;;;;;;14.55;7.45;;;;;;;;;;4997811;28;88216;-61
2023/04/05 04:48:13;;;;;;;12.33;7.20;;;;;;;;;;4998309;28;88878;-62
2023/04/05 04:50:39;;;;;;;19.05;7.55;;;;;;;;;;4998131;28;88182;-62
2023/04/05 04:53:06;;;;;;;14.10;7.93;;;;;;;;;;4997764;28;88735;-61
2023/04/05 04:55:32;;;;;;;10.77;6.30;;;;;;;;;;4997727;28;89168;-61
2023/04/05 04:57:59;;;;;;;12.93;7.70;;;;;;;;;;4997808;28;88065;-61
2023/04/05 05:00:25;;;;;;;15.77;7.70;;;;;;;;;;5001389;28;88769;-61
2023/04/05 05:02:52;;;;;;;13.95;7.97;;;;;;;;;;4978075;28;87994;-60
2023/04/05 05:05:21;;;;;;;10.90;6.93;;;;;;;;;;4999147;28;89726;-60
2023/04/05 05:07:48;;;;;;;9.48;6.57;;;;;;;;;;5013718;28;89931;-60
2023/04/05 05:10:15;;;;;;;12.27;7.25;;;;;;;;;;5000025;28;88629;-61
2023/04/05 05:12:42;;;;;;;12.00;7.03;;;;;;;;;;5016092;28;88992;-61
2023/04/05 05:15:09;;;;;;;11.98;7.07;;;;;;;;;;5015449;28;89957;-60
2023/04/05 05:17:36;;;;;;;11.80;7.00;;;;;;;;;;5014410;28;88064;-61
2023/04/05 05:20:09;;;;;;;13.88;7.47;;;;;;;;;;5014111;28;88663;-61
2023/04/05 05:22:36;;;;;;;11.60;7.20;;;;;;;;;;5009776;28;89033;-61
2023/04/05 05:25:04;;;;;;;11.35;6.43;;;;;;;;;;5005750;28;89302;-61
2023/04/05 05:27:30;;;;;;;11.80;7.05;;;;;;;;;;5009016;28;89255;-61
2023/04/05 05:29:57;;;;;;;21.30;8.38;;;;;;;;;;5016510;28;88015;-62
2023/04/05 05:32:23;;;;;;;15.30;7.63;;;;;;;;;;5000539;28;88895;-61
2023/04/05 05:34:49;;;;;;;10.32;6.68;;;;;;;;;;5010166;28;89157;-61
2023/04/05 05:37:16;;;;;;;16.45;7.72;;;;;;;;;;4996799;28;88019;-62
2023/04/05 05:39:45;;;;;;;12.30;7.30;;;;;;;;;;4995942;28;88587;-60
2023/04/05 05:42:12;;;;;;;15.90;7.20;;;;;;;;;;5009572;28;89018;-61
2023/04/05 05:44:38;;;;;;;20.13;7.95;;;;;;;;;;5018498;28;88895;-61
2023/04/05 05:47:04;;;;;;;11.77;7.47;;;;;;;;;;5007932;28;88802;-60
2023/04/05 05:49:31;;;;;;;14.48;6.97;;;;;;;;;;5012354;28;87840;-61
2023/04/05 05:51:57;;;;;;;16.35;8.02;;;;;;;;;;5001923;28;88323;-64
2023/04/05 05:54:24;;;;;;;16.02;8.60;;;;;;;;;;4995968;28;89187;-63
2023/04/05 05:56:50;;;;;;;11.93;7.22;;;;;;;;;;4998544;28;88795;-63
2023/04/05 05:59:16;;;;;;;12.35;8.05;;;;;;;;;;4999445;28;89699;-62
2023/04/05 06:01:45;;;;;;;17.63;9.07;;;;;;;;;;5002611;28;89012;-62
2023/04/05 06:04:12;;;;;;;19.23;9.07;;;;;;;;;;5016128;28;89335;-62
2023/04/05 06:06:41;;;;;;;17.00;8.25;;;;;;;;;;5002273;28;88793;-62
2023/04/05 06:09:08;;;;;;;15.82;8.00;;;;;;;;;;4996434;28;88031;-61
2023/04/05 06:11:35;;;;;;;14.68;8.60;;;;;;;;;;5014604;28;89068;-61
2023/04/05 06:14:08;;;;;;;14.38;8.25;;;;;;;;;;5007794;28;88235;-61
2023/04/05 06:16:35;;;;;;;17.67;8.30;;;;;;;;;;4999542;28;88115;-61
2023/04/05 06:19:01;;;;;;;18.33;8.25;;;;;;;;;;4996755;28;89594;-61
2023/04/05 06:21:27;;;;;;;11.52;8.13;;;;;;;;;;5005067;28;90777;-61
2023/04/05 06:23:54;;;;;;;14.10;8.05;;;;;;;;;;5010415;28;88012;-61
2023/04/05 06:26:22;;;;;;;12.70;8.45;;;;;;;;;;5013124;28;88931;-61
2023/04/05 06:28:48;;;;;;;14.82;8.07;;;;;;;;;;5000293;28;89568;-60
2023/04/05 06:31:15;;;;;;;18.48;8.15;;;;;;;;;;4990048;28;89132;-60
2023/04/05 06:33:42;;;;;;;22.38;8.65;;;;;;;;;;4991265;28;89190;-61
2023/04/05 06:36:08;;;;;;;15.45;8.35;;;;;;;;;;4996487;28;88053;-60
2023/04/05 06:38:35;;;;;;;15.93;8.05;;;;;;;;;;4997007;28;89899;-61
2023/04/05 06:41:01;;;;;;;19.42;7.85;;;;;;;;;;4996662;28;90442;-60
2023/04/05 06:43:28;;;;;;;15.63;8.52;;;;;;;;;;4996671;28;88071;-61
2023/04/05 06:45:55;;;;;;;20.90;8.85;;;;;;;;;;4994009;28;88949;-60
2023/04/05 06:48:21;;;;;;;19.92;9.23;;;;;;;;;;4995778;28;89177;-60
2023/04/05 06:50:55;;;;;;;16.85;9.70;;;;;;;;;;5000509;28;88658;-61
2023/04/05 06:53:21;;;;;;;16.48;8.95;;;;;;;;;;4999801;28;89028;-60
2023/04/05 06:55:49;;;;;;;19.20;8.90;;;;;;;;;;4999687;28;88198;-61
2023/04/05 06:58:16;;;;;;;21.67;9.43;;;;;;;;;;4997806;28;88657;-61
2023/04/05 07:00:42;;;;;;;23.85;9.13;;;;;;;;;;5013743;28;90166;-62
2023/04/05 07:03:08;;;;;;;22.25;9.63;;;;;;;;;;4999310;28;87442;-61
2023/04/05 07:05:35;;;;;;;24.02;9.77;;;;;;;;;;5004732;28;89120;-60
2023/04/05 07:08:01;;;;;;;20.40;9.18;;;;;;;;;;5018390;28;89434;-62
2023/04/05 07:10:28;;;;;;;24.20;9.25;;;;;;;;;;5013419;28;89113;-62
2023/04/05 07:12:54;;;;;;;17.50;9.88;;;;;;;;;;5017293;28;88906;-61
2023/04/05 07:15:20;;;;;;;19.15;9.35;;;;;;;;;;4995062;28;88738;-61
2023/04/05 07:17:46;;;;;;;17.33;10.25;;;;;;;;;;5003664;28;89228;-62
2023/04/05 07:20:13;;;;;;;20.88;9.80;;;;;;;;;;5014063;28;89174;-62
2023/04/05 07:22:39;;;;;;;28.27;8.70;;;;;;;;;;5005888;28;90146;-61
2023/04/05 07:25:08;;;;;;;25.67;10.23;;;;;;;;;;5011805;28;89167;-63
2023/04/05 07:27:35;;;;;;;18.27;9.48;;;;;;;;;;4986564;28;88843;-62
2023/04/05 07:30:01;;;;;;;23.00;9.95;;;;;;;;;;5008643;28;89873;-61
2023/04/05 07:32:27;;;;;;;14.95;8.98;;;;;;;;;;5019663;28;90365;-62
2023/04/05 07:34:55;;;;;;;17.58;9.73;;;;;;;;;;5018081;28;88938;-60
2023/04/05 07:37:22;;;;;;;21.63;10.90;;;;;;;;;;5009871;28;90723;-60
2023/04/05 07:39:48;;;;;;;24.88;13.98;;;;;;;;;;5012429;28;89241;-61
2023/04/05 07:42:16;;;;;;;19.92;10.75;;;;;;;;;;5007651;28;89284;-62
2023/04/05 07:44:42;;;;;;;20.02;9.95;;;;;;;;;;4999780;28;89521;-61
2023/04/05 07:47:09;;;;;;;15.60;9.85;;;;;;;;;;4992268;28;89979;-60
2023/04/05 07:49:36;;;;;;;14.98;9.45;;;;;;;;;;5007006;28;88103;-62
2023/04/05 07:52:03;;;;;;;21.10;9.43;;;;;;;;;;5001401;28;89855;-61
2023/04/05 07:54:32;;;;;;;18.42;9.30;;;;;;;;;;5015487;28;90404;-61
2023/04/05 07:56:59;;;;;;;14.45;9.13;;;;;;;;;;4998761;28;88678;-61
2023/04/05 07:59:26;;;;;;;20.15;9.80;;;;;;;;;;5004555;28;90225;-62
2023/04/05 08:01:52;;;;;;;15.80;9.43;;;;;;;;;;5015766;28;88425;-61
2023/04/05 08:04:26;;;;;;;18.08;9.32;;;;;;;;;;5003170;28;88057;-60
2023/04/05 08:06:53;;;;;;;24.38;8.75;;;;;;;;;;5015144;28;89189;-60
2023/04/05 08:09:19;;;;;;;17.63;9.13;;;;;;;;;;5002151;28;88154;-62
2023/04/05 08:11:45;;;;;;;15.35;8.70;;;;;;;;;;5014748;28;88891;-61
2023/04/05 08:14:12;;;;;;;19.48;9.25;;;;;;;;;;4998360;28;88030;-61
2023/04/05 08:16:38;;;;;;;13.85;8.23;;;;;;;;;;5008393;28;87872;-62
2023/04/05 08:19:04;;;;;;;16.42;7.20;;;;;;;;;;5005415;28;89447;-61
2023/04/05 08:21:31;;;;;;;16.00;7.82;;;;;;;;;;5001602;28;88894;-61
2023/04/05 08:23:57;;;;;;;19.40;7.93;;;;;;;;;;4997723;28;89447;-61
2023/04/05 08:26:24;;;;;;;20.67;7.78;;;;;;;;;;5000717;28;89253;-60
2023/04/05 08:28:50;;;;;;;14.82;7.35;;;;;;;;;;4998732;28;88469;-62
2023/04/05 08:31:17;;;;;;;12.93;7.57;;;;;;;;;;4997950;28;88820;-62
2023/04/05 08:33:43;;;;;;;11.50;6.65;;;;;;;;;;4998281;28;89384;-62
2023/04/05 08:36:10;;;;;;;10.75;6.57;;;;;;;;;;4998640;28;89046;-62
2023/04/05 08:38:36;;;;;;;11.07;6.65;;;;;;;;;;5000598;28;89164;-61
2023/04/05 08:41:05;;;;;;;10.40;5.75;;;;;;;;;;4999167;28;89201;-61
2023/04/05 08:43:35;;;;;;;13.20;7.13;;;;;;;;;;4998348;28;89138;-61
2023/04/05 08:46:02;;;;;;;10.85;6.47;;;;;;;;;;4998120;28;90141;-61
2023/04/05 08:48:31;;;;;;;9.95;6.55;;;;;;;;;;4997662;28;89013;-61
2023/04/05 08:50:57;;;;;;;17.00;6.65;;;;;;;;;;5004794;28;89478;-61
2023/04/05 08:53:23;;;;;;;17.48;8.02;;;;;;;;;;4997643;28;88015;-60
2023/04/05 08:55:53;;;;;;;11.23;5.70;;;;;;;;;;5011043;28;89782;-60
2023/04/05 08:58:23;;;;;;;9.40;5.60;;;;;;;;;;5000441;28;90198;-60
2023/04/05 09:00:50;;;;;;;11.70;6.45;;;;;;;;;;5010893;28;89042;-60
2023/04/05 09:03:18;;;;;;;13.77;6.78;;;;;;;;;;5010571;28;89897;-62
2023/04/05 09:05:45;;;;;;;10.77;6.22;;;;;;;;;;5013669;28;88960;-60
2023/04/05 09:08:12;;;;;;;15.02;5.97;;;;;;;;;;4999597;28;89828;-61
2023/04/05 09:10:39;;;;;;;11.43;4.90;;;;;;;;;;5016797;28;88796;-61
2023/04/05 09:13:07;;;;;;;15.05;6.57;;;;;;;;;;5015745;28;90521;-60
2023/04/05 09:15:36;;;;;;;8.23;4.60;;;;;;;;;;5013043;28;88089;-60
2023/04/05 09:18:02;;;;;;;9.18;5.47;;;;;;;;;;5012296;28;89701;-60
2023/04/05 09:20:41;;;;;;;8.93;5.93;;;;;;;;;;5003308;28;89172;-61
2023/04/05 09:23:08;;;;;;;8.70;5.28;;;;;;;;;;5001661;28;90317;-61
2023/04/05 09:25:37;;;;;;;9.98;5.68;;;;;;;;;;4996850;28;88935;-60
2023/04/05 09:28:07;;;;;;;13.63;5.20;;;;;;;;;;5004543;28;88841;-60
2023/04/05 09:30:34;;;;;;;12.93;5.50;;;;;;;;;;5001806;28;88772;-62
2023/04/05 09:33:00;;;;;;;8.35;5.30;;;;;;;;;;5008581;28;89182;-61
2023/04/05 09:35:28;;;;;;;12.73;5.65;;;;;;;;;;4997088;28;88090;-60
2023/04/05 09:37:56;;;;;;;12.95;5.95;;;;;;;;;;4993906;28;89056;-61
2023/04/05 09:40:23;;;;;;;9.60;5.32;;;;;;;;;;5009970;28;89427;-60
2023/04/05 09:42:50;;;;;;;17.65;5.90;;;;;;;;;;5016973;28;88672;-60
2023/04/05 09:45:17;;;;;;;8.85;5.25;;;;;;;;;;5017275;28;88833;-60
2023/04/05 09:47:52;;;;;;;7.97;5.50;;;;;;;;;;5002853;28;89306;-60
2023/04/05 09:50:19;;;;;;;9.25;5.97;;;;;;;;;;5011548;28;88773;-60
2023/04/05 09:52:45;;;;;;;11.50;6.13;;;;;;;;;;5012559;28;90035;-61
2023/04/05 09:55:12;;;;;;;7.40;5.28;;;;;;;;;;4997685;28;88928;-61
2023/04/05 09:57:39;;;;;;;10.02;5.47;;;;;;;;;;5016247;28;88139;-61
2023/04/05 10:00:16;;;;;;;6.85;5.10;;;;;;;;;;5016914;28;89110;-61
2023/04/05 10:02:42;;;;;;;9.38;5.75;;;;;;;;;;5014065;28;88855;-61
2023/04/05 10:05:15;;;;;;;13.30;5.97;;;;;;;;;;5018018;28;88145;-61
2023/04/05 10:07:42;;;;;;;10.98;4.75;;;;;;;;;;5016742;28;88062;-61
2023/04/05 10:10:12;;;;;;;8.43;5.00;;;;;;;;;;5017003;28;89792;-61
2023/04/05 10:12:40;;;;;;;6.88;4.97;;;;;;;;;;5011650;28;88904;-62
2023/04/05 10:15:07;;;;;;;12.38;5.85;;;;;;;;;;5009337;28;88280;-61
2023/04/05 10:17:37;;;;;;;11.52;6.18;;;;;;;;;;4993254;28;88689;-61
2023/04/05 10:20:20;;;;;;;8.15;5.50;;;;;;;;;;4998747;28;88829;-61
2023/04/05 10:23:05;;;;;;;10.15;6.40;;;;;;;;;;5002905;28;88892;-62
2023/04/05 10:25:34;;;;;;;8.93;5.90;;;;;;;;;;5017810;28;89770;-61
2023/04/05 10:28:05;;;;;;;9.25;6.07;;;;;;;;;;5020695;28;89959;-61
2023/04/05 10:30:31;;;;;;;;;;;;;;;;;;5007579;28;89364;-60
2023/04/05 10:33:04;;;;;;;12.18;6.05;;;;;;;;;;5005840;28;119875;-60
2023/04/05 10:35:39;;;;;;;9.13;6.05;;;;;;;;;;5019981;28;88067;-61
2023/04/05 10:38:08;;;;;;;14.32;6.25;;;;;;;;;;5007170;28;89791;-61
2023/04/05 10:40:35;;;;;;;16.55;6.13;;;;;;;;;;4998212;28;88994;-62
2023/04/05 10:43:02;;;;;;;7.70;5.90;;;;;;;;;;5002169;28;87959;-61
2023/04/05 10:45:30;;;;;;;10.68;6.15;;;;;;;;;;5019157;28;88933;-61
2023/04/05 10:48:14;;;;;;;10.93;6.07;;;;;;;;;;5004405;28;89179;-61
2023/04/05 10:50:41;;;;;;;10.82;5.72;;;;;;;;;;5007080;28;90037;-61
2023/04/05 10:53:09;;;;;;;9.63;6.18;;;;;;;;;;4989922;28;90360;-62
2023/04/05 10:55:35;;;;;;;12.65;6.60;;;;;;;;;;4999764;28;88179;-62
2023/04/05 10:58:02;;;;;;;9.80;5.70;;;;;;;;;;5001421;28;88966;-61
2023/04/05 11:00:29;;;;;;;11.00;5.75;;;;;;;;;;5008210;28;89868;-61
2023/04/05 11:02:56;;;;;;;9.23;6.10;;;;;;;;;;4999402;28;88105;-62
2023/04/05 11:05:30;;;;;;;8.60;5.35;;;;;;;;;;5019794;28;88674;-62
2023/04/05 11:07:58;;;;;;;7.95;5.57;;;;;;;;;;5018895;28;88951;-62
2023/04/05 11:10:25;;;;;;;9.52;5.80;;;;;;;;;;5011919;28;88384;-61
2023/04/05 11:12:51;;;;;;;9.02;5.18;;;;;;;;;;5015569;28;88309;-62
2023/04/05 11:15:36;;;;;;;8.65;5.13;;;;;;;;;;5018549;28;88038;-61
2023/04/05 11:18:03;;;;;;;9.32;5.93;;;;;;;;;;5004054;28;88663;-61
2023/04/05 11:20:50;;;;;;;8.45;5.22;;;;;;;;;;5008795;28;89947;-62
2023/04/05 11:23:20;;;;;;;8.23;6.18;;;;;;;;;;5014209;28;89040;-62
2023/04/05 11:25:49;;;;;;;9.52;5.85;;;;;;;;;;4998131;28;89552;-61
2023/04/05 11:28:29;;;;;;;8.35;5.32;;;;;;;;;;5018215;28;89010;-62
2023/04/05 11:30:57;;;;;;;8.13;5.32;;;;;;;;;;5011718;28;89771;-62
2023/04/05 11:33:41;;;;;;;6.80;5.38;;;;;;;;;;4992473;28;88624;-62
2023/04/05 11:36:09;;;;;;;12.20;5.50;;;;;;;;;;5018029;28;88428;-62
2023/04/05 11:38:36;;;;;;;9.65;5.40;;;;;;;;;;5018540;28;89071;-63
2023/04/05 11:41:10;;;;;;;8.38;5.75;;;;;;;;;;5015051;28;89055;-62
2023/04/05 11:43:37;;;;;;;8.07;5.28;;;;;;;;;;5016441;28;88911;-62
2023/04/05 11:46:06;;;;;;;8.60;5.35;;;;;;;;;;5018357;28;90329;-63
2023/04/05 11:48:33;;;;;;;7.70;5.35;;;;;;;;;;4999133;28;89012;-62
2023/04/05 11:51:04;;;;;;;7.75;5.20;;;;;;;;;;5011427;28;89196;-63
2023/04/05 11:53:30;;;;;;;;;;;;;;;;;;5017284;28;89756;-61
2023/04/05 11:56:05;;;;;;;9.57;5.28;;;;;;;;;;5019164;28;119272;-63
2023/04/05 11:58:31;;;;;;;6.35;4.78;;;;;;;;;;5017630;28;88650;-63
2023/04/05 12:00:58;;;;;;;10.85;5.93;;;;;;;;;;5005293;28;90646;-62
2023/04/05 12:03:26;;;;;;;7.60;5.32;;;;;;;;;;5005621;28;88673;-62
2023/04/05 12:05:53;;;;;;;5.45;4.63;;;;;;;;;;5008335;28;89005;-62
2023/04/05 12:08:19;;;;;;;10.10;5.18;;;;;;;;;;5017859;28;89799;-63
2023/04/05 12:10:55;;;;;;;7.32;5.10;;;;;;;;;;5002834;28;88085;-62
2023/04/05 12:13:28;;;;;;;8.15;5.10;;;;;;;;;;5000911;28;90134;-62
2023/04/05 12:15:58;;;;;;;7.82;4.68;;;;;;;;;;5018860;28;89053;-62
2023/04/05 12:18:25;;;;;;;8.45;4.95;;;;;;;;;;5014322;28;88983;-61
2023/04/05 12:20:52;;;;;;;6.00;5.18;;;;;;;;;;5004338;28;90304;-62
2023/04/05 12:23:20;;;;;;;8.25;5.22;;;;;;;;;;5000502;28;88845;-62
2023/04/05 12:25:47;;;;;;;9.77;4.55;;;;;;;;;;4998929;28;89783;-62
2023/04/05 12:28:14;;;;;;;11.40;4.35;;;;;;;;;;5017668;28;90085;-62
2023/04/05 12:30:53;;;;;;;9.13;3.85;;;;;;;;;;4999441;28;88328;-63
2023/04/05 12:33:31;;;;;;;6.88;3.92;;;;;;;;;;4990742;28;88759;-63
2023/04/05 12:35:58;;;;;;;7.50;4.05;;;;;;;;;;5017621;28;88032;-62
2023/04/05 12:38:25;;;;;;;5.10;4.35;;;;;;;;;;5018689;28;88571;-62
2023/04/05 12:40:53;;;;;;;7.57;4.15;;;;;;;;;;5001575;28;88915;-62
2023/04/05 12:43:20;;;;;;;9.60;4.10;;;;;;;;;;4998406;28;88167;-62
2023/04/05 12:45:49;;;;;;;4.53;4.10;;;;;;;;;;5012309;28;88784;-63
2023/04/05 12:48:21;;;;;;;9.25;4.30;;;;;;;;;;4998350;28;89985;-62
2023/04/05 12:50:50;;;;;;;4.90;4.25;;;;;;;;;;4999089;28;89019;-63
2023/04/05 12:53:19;;;;;;;7.50;4.57;;;;;;;;;;5015888;28;87991;-62
2023/04/05 12:55:49;;;;;;;8.32;4.68;;;;;;;;;;5003277;28;89618;-62
2023/04/05 12:58:16;;;;;;;10.60;4.80;;;;;;;;;;4997508;28;89046;-62
2023/04/05 13:00:42;;;;;;;8.73;5.15;;;;;;;;;;5003240;28;90451;-62
2023/04/05 13:03:16;;;;;;;13.07;5.40;;;;;;;;;;5019037;28;88467;-61
2023/04/05 13:05:43;;;;;;;12.38;5.22;;;;;;;;;;5016269;28;88712;-62
2023/04/05 13:08:09;;;;;;;5.50;5.00;;;;;;;;;;5003649;28;89317;-62
2023/04/05 13:10:36;;;;;;;9.85;5.70;;;;;;;;;;5004311;28;88431;-61
2023/04/05 13:13:02;;;;;;;10.93;5.70;;;;;;;;;;4999449;28;88052;-62
2023/04/05 13:15:28;;;;;;;16.67;5.93;;;;;;;;;;5004426;28;89276;-61
2023/04/05 13:17:55;;;;;;;8.13;5.53;;;;;;;;;;4997974;28;88245;-62
2023/04/05 13:20:21;;;;;;;8.60;6.35;;;;;;;;;;4995707;28;89841;-62
2023/04/05 13:22:48;;;;;;;8.90;5.47;;;;;;;;;;4998156;28;90883;-62
2023/04/05 13:25:14;;;;;;;8.52;5.95;;;;;;;;;;4998853;28;88625;-62
2023/04/05 13:27:41;;;;;;;13.27;5.90;;;;;;;;;;5004330;28;87970;-61
2023/04/05 13:30:08;;;;;;;10.48;5.85;;;;;;;;;;5000132;28;88884;-62
2023/04/05 13:32:34;;;;;;;8.52;6.30;;;;;;;;;;5016185;28;89154;-62
2023/04/05 13:35:01;;;;;;;41.55;6.85;;;;;;;;;;5015821;28;89027;-61
2023/04/05 13:37:27;;;;;;;9.43;6.03;;;;;;;;;;5001355;28;88057;-61
2023/04/05 13:39:53;;;;;;;8.20;6.28;;;;;;;;;;5011392;28;88582;-63
2023/04/05 13:42:20;;;;;;;16.73;6.32;;;;;;;;;;5017336;28;90357;-68
2023/04/05 13:44:46;;;;;;;9.00;5.97;;;;;;;;;;5017184;28;88197;-70
2023/04/05 13:47:13;;;;;;;12.40;5.70;;;;;;;;;;5004386;28;88744;-70
2023/04/05 13:49:40;;;;;;;7.47;5.28;;;;;;;;;;5004579;28;88943;-69
2023/04/05 13:52:06;;;;;;;7.60;5.65;;;;;;;;;;4999161;28;89821;-68
2023/04/05 13:54:33;;;;;;;13.63;6.43;;;;;;;;;;5005262;28;89029;-71
2023/04/05 13:56:59;;;;;;;7.43;5.82;;;;;;;;;;5012161;28;89212;-71
2023/04/05 13:59:25;;;;;;;8.90;6.10;;;;;;;;;;5014085;28;89080;-70
2023/04/05 14:01:52;;;;;;;12.80;5.70;;;;;;;;;;5002496;28;88991;-70
2023/04/05 14:04:19;;;;;;;9.00;5.53;;;;;;;;;;4997589;28;87898;-70
2023/04/05 14:06:45;;;;;;;11.38;6.45;;;;;;;;;;5012255;28;88027;-70
2023/04/05 14:09:12;;;;;;;35.00;6.93;;;;;;;;;;5010381;28;88383;-70
2023/04/05 14:11:39;;;;;;;11.43;5.85;;;;;;;;;;5010385;28;89008;-70
2023/04/05 14:14:05;;;;;;;7.80;6.30;;;;;;;;;;4987182;28;88992;-70
2023/04/05 14:16:32;;;;;;;8.00;5.65;;;;;;;;;;4992231;28;88289;-70
2023/04/05 14:18:58;;;;;;;8.65;6.00;;;;;;;;;;4996976;28;88854;-70
2023/04/05 14:21:25;;;;;;;8.75;5.90;;;;;;;;;;4993380;28;90015;-71
2023/04/05 14:23:55;;;;;;;10.38;5.68;;;;;;;;;;4994301;28;88726;-70
2023/04/05 14:26:25;;;;;;;12.05;6.30;;;;;;;;;;4997405;28;88750;-70
2023/04/05 14:28:52;;;;;;;8.73;6.72;;;;;;;;;;5008549;28;88287;-70
2023/04/05 14:31:18;;;;;;;9.60;6.05;;;;;;;;;;5010714;28;88417;-71
2023/04/05 14:33:45;;;;;;;14.05;6.63;;;;;;;;;;4996579;28;89300;-70
2023/04/05 14:36:11;;;;;;;12.60;5.75;;;;;;;;;;5008039;28;88869;-70
2023/04/05 14:38:37;;;;;;;19.38;6.30;;;;;;;;;;5009953;28;89489;-71